sensor_id;sensor_type;location;lat;lon;timestamp;pressure;altitude;pressure_sealevel;temperature;humidity
9672;BME280;4874;43.568;27.824;2023-05-02T00:02:11;99538.16;;;11.52;99.52
9672;BME280;4874;43.568;27.824;2023-05-02T00:04:37;99540.25;;;11.39;100.00
9672;BME280;4874;43.568;27.824;2023-05-02T00:07:04;99538.81;;;11.26;100.00
9672;BME280;4874;43.568;27.824;2023-05-02T00:09:31;99542.28;;;11.26;100.00
9672;BME280;4874;43.568;27.824;2023-05-02T00:11:57;99542.84;;;11.20;100.00
9672;BME280;4874;43.568;27.824;2023-05-02T00:14:24;99542.47;;;11.04;100.00
9672;BME280;4874;43.568;27.824;2023-05-02T00:16:51;99544.03;;;11.07;100.00
9672;BME280;4874;43.568;27.824;2023-05-02T00:19:18;99549.16;;;11.29;100.00
9672;BME280;4874;43.568;27.824;2023-05-02T00:21:47;99546.41;;;11.10;100.00
9672;BME280;4874;43.568;27.824;2023-05-02T00:24:17;99552.66;;;10.99;100.00
9672;BME280;4874;43.568;27.824;2023-05-02T00:26:44;99550.63;;;10.82;100.00
9672;BME280;4874;43.568;27.824;2023-05-02T00:29:10;99552.38;;;11.02;100.00
9672;BME280;4874;43.568;27.824;2023-05-02T00:31:39;99551.13;;;10.97;100.00
9672;BME280;4874;43.568;27.824;2023-05-02T00:34:05;99561.53;;;10.89;100.00
9672;BME280;4874;43.568;27.824;2023-05-02T00:36:32;99558.72;;;10.81;100.00
9672;BME280;4874;43.568;27.824;2023-05-02T00:38:59;99560.63;;;10.69;100.00
9672;BME280;4874;43.568;27.824;2023-05-02T00:41:25;99567.31;;;10.94;100.00
9672;BME280;4874;43.568;27.824;2023-05-02T00:43:52;99559.59;;;10.91;100.00
9672;BME280;4874;43.568;27.824;2023-05-02T00:46:18;99562.34;;;11.00;100.00
9672;BME280;4874;43.568;27.824;2023-05-02T00:48:45;99556.34;;;10.57;100.00
9672;BME280;4874;43.568;27.824;2023-05-02T00:51:11;99553.09;;;10.53;100.00
9672;BME280;4874;43.568;27.824;2023-05-02T00:53:39;99562.88;;;10.74;100.00
9672;BME280;4874;43.568;27.824;2023-05-02T00:56:06;99562.22;;;10.40;100.00
9672;BME280;4874;43.568;27.824;2023-05-02T00:58:32;99565.25;;;10.35;100.00
9672;BME280;4874;43.568;27.824;2023-05-02T01:06:18;99559.84;;;10.37;100.00
9672;BME280;4874;43.568;27.824;2023-05-02T01:11:15;99560.94;;;10.34;100.00
9672;BME280;4874;43.568;27.824;2023-05-02T01:13:43;99556.66;;;10.43;100.00
9672;BME280;4874;43.568;27.824;2023-05-02T01:16:11;99560.16;;;10.43;100.00
9672;BME280;4874;43.568;27.824;2023-05-02T01:18:39;99553.09;;;10.53;100.00
9672;BME280;4874;43.568;27.824;2023-05-02T01:21:08;99559.91;;;10.15;100.00
9672;BME280;4874;43.568;27.824;2023-05-02T01:26:09;99555.59;;;10.14;100.00
9672;BME280;4874;43.568;27.824;2023-05-02T01:28:58;99559.50;;;9.88;100.00
9672;BME280;4874;43.568;27.824;2023-05-02T01:31:25;99556.13;;;9.86;100.00
9672;BME280;4874;43.568;27.824;2023-05-02T01:33:53;99553.25;;;9.89;100.00
9672;BME280;4874;43.568;27.824;2023-05-02T01:36:21;99557.59;;;9.90;100.00
9672;BME280;4874;43.568;27.824;2023-05-02T01:38:48;99554.91;;;10.01;100.00
9672;BME280;4874;43.568;27.824;2023-05-02T01:41:16;99561.56;;;9.95;100.00
9672;BME280;4874;43.568;27.824;2023-05-02T01:43:43;99551.00;;;10.05;100.00
9672;BME280;4874;43.568;27.824;2023-05-02T01:46:11;99546.34;;;9.97;100.00
9672;BME280;4874;43.568;27.824;2023-05-02T01:48:40;99553.22;;;10.11;100.00
9672;BME280;4874;43.568;27.824;2023-05-02T01:51:08;99550.19;;;10.04;100.00
9672;BME280;4874;43.568;27.824;2023-05-02T01:53:36;99547.63;;;10.14;100.00
9672;BME280;4874;43.568;27.824;2023-05-02T01:56:03;99548.16;;;9.97;100.00
9672;BME280;4874;43.568;27.824;2023-05-02T01:58:31;99546.94;;;10.01;100.00
9672;BME280;4874;43.568;27.824;2023-05-02T02:00:59;99551.41;;;10.00;100.00
9672;BME280;4874;43.568;27.824;2023-05-02T02:03:29;99557.91;;;9.96;100.00
9672;BME280;4874;43.568;27.824;2023-05-02T02:05:57;99561.16;;;9.68;100.00
9672;BME280;4874;43.568;27.824;2023-05-02T02:08:24;99558.38;;;9.59;100.00
9672;BME280;4874;43.568;27.824;2023-05-02T02:10:53;99552.25;;;9.58;100.00
9672;BME280;4874;43.568;27.824;2023-05-02T02:13:25;99552.06;;;9.39;100.00
9672;BME280;4874;43.568;27.824;2023-05-02T02:15:55;99551.59;;;9.77;100.00
9672;BME280;4874;43.568;27.824;2023-05-02T02:18:23;99552.44;;;9.77;100.00
9672;BME280;4874;43.568;27.824;2023-05-02T02:20:51;99556.72;;;9.58;100.00
9672;BME280;4874;43.568;27.824;2023-05-02T02:23:20;99564.66;;;9.46;100.00
9672;BME280;4874;43.568;27.824;2023-05-02T02:25:47;99566.13;;;9.50;100.00
9672;BME280;4874;43.568;27.824;2023-05-02T02:28:15;99558.50;;;9.57;100.00
9672;BME280;4874;43.568;27.824;2023-05-02T02:30:42;99563.63;;;9.27;100.00
9672;BME280;4874;43.568;27.824;2023-05-02T02:33:09;99566.50;;;9.13;100.00
9672;BME280;4874;43.568;27.824;2023-05-02T02:35:39;99562.50;;;9.51;100.00
9672;BME280;4874;43.568;27.824;2023-05-02T02:41:10;99558.44;;;9.25;100.00
9672;BME280;4874;43.568;27.824;2023-05-02T02:51:43;99564.72;;;9.13;100.00
9672;BME280;4874;43.568;27.824;2023-05-02T02:56:56;99567.84;;;9.18;100.00
9672;BME280;4874;43.568;27.824;2023-05-02T03:02:14;99576.72;;;9.17;100.00
9672;BME280;4874;43.568;27.824;2023-05-02T03:04:42;99580.81;;;9.10;100.00
9672;BME280;4874;43.568;27.824;2023-05-02T03:07:11;99581.69;;;9.22;100.00
9672;BME280;4874;43.568;27.824;2023-05-02T03:09:44;99586.38;;;9.18;100.00
9672;BME280;4874;43.568;27.824;2023-05-02T03:12:11;99587.94;;;9.21;100.00
9672;BME280;4874;43.568;27.824;2023-05-02T03:14:38;99586.50;;;9.28;100.00
9672;BME280;4874;43.568;27.824;2023-05-02T03:17:05;99587.81;;;9.33;100.00
9672;BME280;4874;43.568;27.824;2023-05-02T03:19:33;99586.72;;;9.36;100.00
9672;BME280;4874;43.568;27.824;2023-05-02T03:22:00;99588.41;;;9.26;100.00
9672;BME280;4874;43.568;27.824;2023-05-02T03:24:26;99593.00;;;9.35;100.00
9672;BME280;4874;43.568;27.824;2023-05-02T03:26:56;99601.16;;;9.54;100.00
9672;BME280;4874;43.568;27.824;2023-05-02T03:29:24;99593.78;;;9.80;100.00
9672;BME280;4874;43.568;27.824;2023-05-02T03:31:51;99607.94;;;9.58;100.00
9672;BME280;4874;43.568;27.824;2023-05-02T03:34:18;99605.94;;;9.82;100.00
9672;BME280;4874;43.568;27.824;2023-05-02T03:36:47;99607.72;;;9.93;100.00
9672;BME280;4874;43.568;27.824;2023-05-02T03:39:14;99606.34;;;10.20;100.00
9672;BME280;4874;43.568;27.824;2023-05-02T03:41:40;99605.72;;;10.28;100.00
9672;BME280;4874;43.568;27.824;2023-05-02T03:44:09;99615.00;;;9.80;100.00
9672;BME280;4874;43.568;27.824;2023-05-02T03:46:35;99618.56;;;10.01;100.00
9672;BME280;4874;43.568;27.824;2023-05-02T03:49:02;99612.63;;;10.19;100.00
9672;BME280;4874;43.568;27.824;2023-05-02T03:51:29;99614.41;;;10.30;100.00
9672;BME280;4874;43.568;27.824;2023-05-02T03:53:55;99618.03;;;10.49;100.00
9672;BME280;4874;43.568;27.824;2023-05-02T03:56:22;99627.63;;;10.61;100.00
9672;BME280;4874;43.568;27.824;2023-05-02T03:58:49;99622.97;;;10.54;100.00
9672;BME280;4874;43.568;27.824;2023-05-02T04:01:16;99633.75;;;10.41;100.00
9672;BME280;4874;43.568;27.824;2023-05-02T04:03:42;99633.00;;;10.50;100.00
9672;BME280;4874;43.568;27.824;2023-05-02T04:06:09;99627.00;;;10.69;100.00
9672;BME280;4874;43.568;27.824;2023-05-02T04:08:36;99621.56;;;10.71;100.00
9672;BME280;4874;43.568;27.824;2023-05-02T04:11:02;99629.91;;;10.66;100.00
9672;BME280;4874;43.568;27.824;2023-05-02T04:13:29;99635.66;;;10.50;100.00
9672;BME280;4874;43.568;27.824;2023-05-02T04:15:56;99630.16;;;10.63;100.00
9672;BME280;4874;43.568;27.824;2023-05-02T04:18:22;99630.84;;;10.44;100.00
9672;BME280;4874;43.568;27.824;2023-05-02T04:20:49;99645.47;;;10.39;100.00
9672;BME280;4874;43.568;27.824;2023-05-02T04:23:16;99647.44;;;10.37;100.00
9672;BME280;4874;43.568;27.824;2023-05-02T04:25:52;99645.00;;;10.65;100.00
9672;BME280;4874;43.568;27.824;2023-05-02T04:28:19;99640.38;;;10.47;100.00
9672;BME280;4874;43.568;27.824;2023-05-02T04:30:47;99648.94;;;10.50;100.00
9672;BME280;4874;43.568;27.824;2023-05-02T04:33:14;99643.38;;;10.74;100.00
9672;BME280;4874;43.568;27.824;2023-05-02T04:35:41;99641.81;;;10.92;100.00
9672;BME280;4874;43.568;27.824;2023-05-02T04:38:08;99646.88;;;11.16;100.00
9672;BME280;4874;43.568;27.824;2023-05-02T04:40:34;99640.16;;;11.21;100.00
9672;BME280;4874;43.568;27.824;2023-05-02T04:43:01;99643.47;;;11.34;100.00
9672;BME280;4874;43.568;27.824;2023-05-02T04:45:28;99645.75;;;11.48;100.00
9672;BME280;4874;43.568;27.824;2023-05-02T04:47:54;99645.69;;;11.59;100.00
9672;BME280;4874;43.568;27.824;2023-05-02T04:50:21;99651.31;;;11.66;100.00
9672;BME280;4874;43.568;27.824;2023-05-02T04:52:47;99654.38;;;11.61;100.00
9672;BME280;4874;43.568;27.824;2023-05-02T04:55:14;99649.84;;;11.52;100.00
9672;BME280;4874;43.568;27.824;2023-05-02T04:57:41;99651.09;;;11.78;100.00
9672;BME280;4874;43.568;27.824;2023-05-02T05:00:07;99651.53;;;11.74;100.00
9672;BME280;4874;43.568;27.824;2023-05-02T05:02:34;99651.94;;;11.79;100.00
9672;BME280;4874;43.568;27.824;2023-05-02T05:05:00;99658.00;;;11.91;100.00
9672;BME280;4874;43.568;27.824;2023-05-02T05:07:28;99658.06;;;12.10;100.00
9672;BME280;4874;43.568;27.824;2023-05-02T05:09:54;99659.06;;;12.28;100.00
9672;BME280;4874;43.568;27.824;2023-05-02T05:12:21;99648.69;;;12.44;100.00
9672;BME280;4874;43.568;27.824;2023-05-02T05:14:47;99662.75;;;12.65;100.00
9672;BME280;4874;43.568;27.824;2023-05-02T05:17:15;99653.47;;;12.78;100.00
9672;BME280;4874;43.568;27.824;2023-05-02T05:19:42;99654.44;;;12.87;100.00
9672;BME280;4874;43.568;27.824;2023-05-02T05:22:09;99652.47;;;12.98;100.00
9672;BME280;4874;43.568;27.824;2023-05-02T05:24:35;99659.47;;;13.19;100.00
9672;BME280;4874;43.568;27.824;2023-05-02T05:27:02;99651.16;;;13.31;100.00
9672;BME280;4874;43.568;27.824;2023-05-02T05:29:30;99659.50;;;13.46;100.00
9672;BME280;4874;43.568;27.824;2023-05-02T05:31:56;99667.34;;;13.57;100.00
9672;BME280;4874;43.568;27.824;2023-05-02T05:34:23;99667.97;;;13.78;100.00
9672;BME280;4874;43.568;27.824;2023-05-02T05:36:50;99663.22;;;13.99;100.00
9672;BME280;4874;43.568;27.824;2023-05-02T05:39:17;99665.34;;;14.23;100.00
9672;BME280;4874;43.568;27.824;2023-05-02T05:41:43;99668.13;;;14.31;100.00
9672;BME280;4874;43.568;27.824;2023-05-02T05:44:10;99662.41;;;14.61;97.75
9672;BME280;4874;43.568;27.824;2023-05-02T05:46:37;99668.81;;;15.03;95.90
9672;BME280;4874;43.568;27.824;2023-05-02T05:49:03;99670.63;;;15.71;90.21
9672;BME280;4874;43.568;27.824;2023-05-02T05:51:30;99672.31;;;16.14;95.26
9672;BME280;4874;43.568;27.824;2023-05-02T05:53:56;99670.31;;;17.14;90.44
9672;BME280;4874;43.568;27.824;2023-05-02T05:56:23;99671.66;;;17.26;85.66
9672;BME280;4874;43.568;27.824;2023-05-02T05:58:50;99674.59;;;17.71;82.68
9672;BME280;4874;43.568;27.824;2023-05-02T06:01:16;99674.31;;;18.05;77.78
9672;BME280;4874;43.568;27.824;2023-05-02T06:03:43;99660.88;;;18.66;72.01
9672;BME280;4874;43.568;27.824;2023-05-02T06:06:09;99681.97;;;18.16;66.55
9672;BME280;4874;43.568;27.824;2023-05-02T06:08:36;99675.31;;;18.96;66.78
9672;BME280;4874;43.568;27.824;2023-05-02T06:11:02;99669.81;;;19.26;65.39
9672;BME280;4874;43.568;27.824;2023-05-02T06:13:33;99665.34;;;19.19;66.04
9672;BME280;4874;43.568;27.824;2023-05-02T06:16:00;99666.72;;;19.52;63.65
9672;BME280;4874;43.568;27.824;2023-05-02T06:18:27;99668.88;;;19.71;62.12
9672;BME280;4874;43.568;27.824;2023-05-02T06:20:54;99671.75;;;19.84;59.28
9672;BME280;4874;43.568;27.824;2023-05-02T06:23:20;99673.50;;;18.88;55.78
9672;BME280;4874;43.568;27.824;2023-05-02T06:25:47;99671.97;;;19.31;57.74
9672;BME280;4874;43.568;27.824;2023-05-02T06:28:14;99674.84;;;19.81;54.77
9672;BME280;4874;43.568;27.824;2023-05-02T06:30:40;99678.69;;;20.51;57.28
9672;BME280;4874;43.568;27.824;2023-05-02T06:33:07;99673.84;;;20.47;58.37
9672;BME280;4874;43.568;27.824;2023-05-02T06:35:33;99674.41;;;20.42;56.23
9672;BME280;4874;43.568;27.824;2023-05-02T06:38:00;99674.16;;;20.23;54.28
9672;BME280;4874;43.568;27.824;2023-05-02T06:40:27;99674.34;;;20.21;52.71
9672;BME280;4874;43.568;27.824;2023-05-02T06:42:53;99672.69;;;20.20;54.06
9672;BME280;4874;43.568;27.824;2023-05-02T06:45:20;99672.59;;;20.14;54.09
9672;BME280;4874;43.568;27.824;2023-05-02T06:47:47;99680.84;;;20.41;52.11
9672;BME280;4874;43.568;27.824;2023-05-02T06:50:13;99677.25;;;20.55;52.13
9672;BME280;4874;43.568;27.824;2023-05-02T06:52:42;99677.13;;;19.99;51.82
9672;BME280;4874;43.568;27.824;2023-05-02T06:55:08;99687.94;;;20.63;54.01
9672;BME280;4874;43.568;27.824;2023-05-02T06:57:35;99681.25;;;19.95;49.40
9672;BME280;4874;43.568;27.824;2023-05-02T07:00:01;99684.44;;;20.48;49.41
9672;BME280;4874;43.568;27.824;2023-05-02T07:02:30;99683.91;;;21.65;51.38
9672;BME280;4874;43.568;27.824;2023-05-02T07:04:56;99689.38;;;21.23;50.43
9672;BME280;4874;43.568;27.824;2023-05-02T07:07:23;99674.34;;;21.14;48.04
9672;BME280;4874;43.568;27.824;2023-05-02T07:09:49;99677.56;;;21.24;47.42
9672;BME280;4874;43.568;27.824;2023-05-02T07:12:16;99691.47;;;20.85;47.71
9672;BME280;4874;43.568;27.824;2023-05-02T07:14:43;99686.34;;;21.60;48.60
9672;BME280;4874;43.568;27.824;2023-05-02T07:17:12;99684.03;;;20.01;48.14
9672;BME280;4874;43.568;27.824;2023-05-02T07:19:38;99694.47;;;19.15;49.39
9672;BME280;4874;43.568;27.824;2023-05-02T07:22:05;99695.56;;;19.95;49.31
9672;BME280;4874;43.568;27.824;2023-05-02T07:24:32;99694.59;;;20.67;50.19
9672;BME280;4874;43.568;27.824;2023-05-02T07:26:58;99686.19;;;20.20;49.67
9672;BME280;4874;43.568;27.824;2023-05-02T07:29:26;99679.63;;;21.49;49.26
9672;BME280;4874;43.568;27.824;2023-05-02T07:31:52;99686.41;;;22.41;50.29
9672;BME280;4874;43.568;27.824;2023-05-02T07:34:19;99689.25;;;22.61;48.38
9672;BME280;4874;43.568;27.824;2023-05-02T07:36:46;99690.63;;;21.75;48.54
9672;BME280;4874;43.568;27.824;2023-05-02T07:39:12;99688.53;;;22.05;47.59
9672;BME280;4874;43.568;27.824;2023-05-02T07:41:39;99687.03;;;21.96;46.29
9672;BME280;4874;43.568;27.824;2023-05-02T07:44:05;99697.28;;;20.82;46.19
9672;BME280;4874;43.568;27.824;2023-05-02T07:46:32;99692.50;;;20.27;45.54
9672;BME280;4874;43.568;27.824;2023-05-02T07:48:59;99691.47;;;20.14;45.28
9672;BME280;4874;43.568;27.824;2023-05-02T07:51:25;99698.47;;;21.15;44.63
9672;BME280;4874;43.568;27.824;2023-05-02T07:53:52;99702.91;;;22.05;45.01
9672;BME280;4874;43.568;27.824;2023-05-02T07:56:20;99702.88;;;21.44;45.53
9672;BME280;4874;43.568;27.824;2023-05-02T07:58:47;99705.34;;;21.18;45.16
9672;BME280;4874;43.568;27.824;2023-05-02T08:01:14;99701.97;;;21.85;46.06
9672;BME280;4874;43.568;27.824;2023-05-02T08:03:40;99697.53;;;22.12;44.82
9672;BME280;4874;43.568;27.824;2023-05-02T08:06:07;99701.97;;;22.73;45.52
9672;BME280;4874;43.568;27.824;2023-05-02T08:08:35;99702.56;;;22.62;44.05
9672;BME280;4874;43.568;27.824;2023-05-02T08:11:02;99690.00;;;22.48;44.52
9672;BME280;4874;43.568;27.824;2023-05-02T08:13:28;99697.34;;;22.20;44.15
9672;BME280;4874;43.568;27.824;2023-05-02T08:15:55;99698.56;;;21.49;43.84
9672;BME280;4874;43.568;27.824;2023-05-02T08:18:23;99693.91;;;22.39;43.58
9672;BME280;4874;43.568;27.824;2023-05-02T08:20:50;99691.41;;;23.04;46.63
9672;BME280;4874;43.568;27.824;2023-05-02T08:23:17;99683.00;;;22.20;43.50
9672;BME280;4874;43.568;27.824;2023-05-02T08:25:44;99685.47;;;21.04;44.17
9672;BME280;4874;43.568;27.824;2023-05-02T08:28:11;99689.13;;;21.66;44.51
9672;BME280;4874;43.568;27.824;2023-05-02T08:30:37;99679.28;;;21.10;44.62
9672;BME280;4874;43.568;27.824;2023-05-02T08:33:04;99690.63;;;22.50;44.27
9672;BME280;4874;43.568;27.824;2023-05-02T08:35:31;99678.59;;;22.59;44.20
9672;BME280;4874;43.568;27.824;2023-05-02T08:37:57;99678.91;;;23.10;43.56
9672;BME280;4874;43.568;27.824;2023-05-02T08:40:24;99676.00;;;23.24;44.26
9672;BME280;4874;43.568;27.824;2023-05-02T08:43:05;99681.66;;;23.29;43.75
9672;BME280;4874;43.568;27.824;2023-05-02T08:45:38;99670.13;;;22.82;44.40
9672;BME280;4874;43.568;27.824;2023-05-02T08:48:05;99680.31;;;21.58;45.85
9672;BME280;4874;43.568;27.824;2023-05-02T08:50:39;99681.41;;;22.38;46.18
9672;BME280;4874;43.568;27.824;2023-05-02T08:53:10;99683.03;;;21.58;45.77
9672;BME280;4874;43.568;27.824;2023-05-02T08:55:38;99672.50;;;21.69;46.07
9672;BME280;4874;43.568;27.824;2023-05-02T08:58:05;99677.97;;;22.10;46.87
9672;BME280;4874;43.568;27.824;2023-05-02T09:00:35;99679.19;;;21.46;46.79
9672;BME280;4874;43.568;27.824;2023-05-02T09:03:48;99690.47;;;20.50;46.53
9672;BME280;4874;43.568;27.824;2023-05-02T09:05:53;99693.66;;;21.38;46.26
9672;BME280;4874;43.568;27.824;2023-05-02T09:08:24;99686.72;;;22.12;44.80
9672;BME280;4874;43.568;27.824;2023-05-02T09:10:51;99688.97;;;22.08;45.23
9672;BME280;4874;43.568;27.824;2023-05-02T09:13:51;99688.19;;;22.68;46.19
9672;BME280;4874;43.568;27.824;2023-05-02T09:16:11;99686.63;;;23.26;45.01
9672;BME280;4874;43.568;27.824;2023-05-02T09:21:14;99675.13;;;21.08;49.10
9672;BME280;4874;43.568;27.824;2023-05-02T09:23:49;99672.41;;;22.85;48.30
9672;BME280;4874;43.568;27.824;2023-05-02T09:26:17;99682.22;;;22.32;48.95
9672;BME280;4874;43.568;27.824;2023-05-02T09:28:47;99681.63;;;22.37;46.51
9672;BME280;4874;43.568;27.824;2023-05-02T09:31:18;99695.09;;;22.30;47.41
9672;BME280;4874;43.568;27.824;2023-05-02T09:34:08;99690.56;;;21.69;48.42
9672;BME280;4874;43.568;27.824;2023-05-02T09:36:43;99682.09;;;21.44;50.04
9672;BME280;4874;43.568;27.824;2023-05-02T09:39:10;99682.63;;;21.61;48.09
9672;BME280;4874;43.568;27.824;2023-05-02T09:41:42;99682.28;;;22.04;49.57
9672;BME280;4874;43.568;27.824;2023-05-02T09:44:10;99689.19;;;22.07;49.12
9672;BME280;4874;43.568;27.824;2023-05-02T09:46:41;99680.38;;;22.46;47.64
9672;BME280;4874;43.568;27.824;2023-05-02T09:49:08;99679.69;;;22.24;47.48
9672;BME280;4874;43.568;27.824;2023-05-02T09:51:40;99674.53;;;23.09;48.14
9672;BME280;4874;43.568;27.824;2023-05-02T09:54:09;99676.22;;;23.03;46.75
9672;BME280;4874;43.568;27.824;2023-05-02T09:57:09;99676.16;;;21.83;47.06
9672;BME280;4874;43.568;27.824;2023-05-02T09:59:29;99675.38;;;22.96;46.42
9672;BME280;4874;43.568;27.824;2023-05-02T10:02:00;99686.31;;;22.62;45.86
9672;BME280;4874;43.568;27.824;2023-05-02T10:04:28;99685.66;;;22.13;46.23
9672;BME280;4874;43.568;27.824;2023-05-02T10:06:55;99679.31;;;22.94;45.97
9672;BME280;4874;43.568;27.824;2023-05-02T10:09:23;99679.72;;;22.97;45.84
9672;BME280;4874;43.568;27.824;2023-05-02T10:11:51;99677.25;;;21.40;45.53
9672;BME280;4874;43.568;27.824;2023-05-02T10:14:19;99669.69;;;21.01;45.99
9672;BME280;4874;43.568;27.824;2023-05-02T10:19:29;99675.28;;;22.64;47.17
9672;BME280;4874;43.568;27.824;2023-05-02T10:21:56;99671.38;;;22.26;45.93
9672;BME280;4874;43.568;27.824;2023-05-02T10:24:23;99677.88;;;22.44;45.20
9672;BME280;4874;43.568;27.824;2023-05-02T10:26:51;99672.56;;;22.57;46.31
9672;BME280;4874;43.568;27.824;2023-05-02T10:29:18;99659.34;;;23.41;44.78
9672;BME280;4874;43.568;27.824;2023-05-02T10:31:44;99666.63;;;23.14;43.70
9672;BME280;4874;43.568;27.824;2023-05-02T10:34:12;99664.34;;;23.57;44.05
9672;BME280;4874;43.568;27.824;2023-05-02T10:36:39;99665.59;;;23.74;44.50
9672;BME280;4874;43.568;27.824;2023-05-02T10:39:08;99655.34;;;23.69;43.87
9672;BME280;4874;43.568;27.824;2023-05-02T10:41:35;99671.91;;;22.08;44.98
9672;BME280;4874;43.568;27.824;2023-05-02T10:44:03;99672.03;;;22.34;45.01
9672;BME280;4874;43.568;27.824;2023-05-02T10:51:29;99669.91;;;21.82;47.09
9672;BME280;4874;43.568;27.824;2023-05-02T10:59:35;99669.19;;;21.19;45.90
9672;BME280;4874;43.568;27.824;2023-05-02T11:05:00;99664.94;;;21.58;46.60
9672;BME280;4874;43.568;27.824;2023-05-02T11:07:29;99659.75;;;21.91;46.11
9672;BME280;4874;43.568;27.824;2023-05-02T11:15:15;99666.13;;;22.71;45.66
9672;BME280;4874;43.568;27.824;2023-05-02T11:18:05;99595.31;;;22.61;46.27
9672;BME280;4874;43.568;27.824;2023-05-02T11:20:40;99658.66;;;22.80;46.48
9672;BME280;4874;43.568;27.824;2023-05-02T11:25:55;99655.97;;;21.24;46.21
9672;BME280;4874;43.568;27.824;2023-05-02T11:28:41;99658.72;;;21.85;45.68
9672;BME280;4874;43.568;27.824;2023-05-02T11:33:55;99665.22;;;21.70;46.13
9672;BME280;4874;43.568;27.824;2023-05-02T11:36:28;99658.22;;;22.76;45.22
9672;BME280;4874;43.568;27.824;2023-05-02T11:38:55;99657.81;;;21.23;46.31
9672;BME280;4874;43.568;27.824;2023-05-02T11:41:22;99657.47;;;21.33;45.37
9672;BME280;4874;43.568;27.824;2023-05-02T11:43:50;99657.94;;;21.98;46.40
9672;BME280;4874;43.568;27.824;2023-05-02T11:46:27;99656.25;;;21.35;45.82
9672;BME280;4874;43.568;27.824;2023-05-02T11:48:54;99651.88;;;21.68;46.18
9672;BME280;4874;43.568;27.824;2023-05-02T11:51:21;99650.97;;;22.23;45.86
9672;BME280;4874;43.568;27.824;2023-05-02T11:53:48;99659.19;;;21.68;45.23
9672;BME280;4874;43.568;27.824;2023-05-02T11:56:14;99644.13;;;21.52;45.53
9672;BME280;4874;43.568;27.824;2023-05-02T11:58:42;99639.44;;;21.12;46.52
9672;BME280;4874;43.568;27.824;2023-05-02T12:01:12;99654.53;;;21.83;46.46
9672;BME280;4874;43.568;27.824;2023-05-02T12:03:40;99644.97;;;21.53;46.06
9672;BME280;4874;43.568;27.824;2023-05-02T12:06:08;99643.72;;;20.64;47.13
9672;BME280;4874;43.568;27.824;2023-05-02T12:08:36;99650.00;;;21.90;46.77
9672;BME280;4874;43.568;27.824;2023-05-02T12:11:03;99653.69;;;22.23;46.51
9672;BME280;4874;43.568;27.824;2023-05-02T12:13:30;99657.72;;;21.38;46.74
9672;BME280;4874;43.568;27.824;2023-05-02T12:15:56;99657.94;;;21.70;46.73
9672;BME280;4874;43.568;27.824;2023-05-02T12:18:23;99650.69;;;21.16;47.91
9672;BME280;4874;43.568;27.824;2023-05-02T12:20:50;99658.53;;;22.47;47.91
9672;BME280;4874;43.568;27.824;2023-05-02T12:23:18;99652.84;;;22.89;46.35
9672;BME280;4874;43.568;27.824;2023-05-02T12:25:46;99657.63;;;22.21;46.36
9672;BME280;4874;43.568;27.824;2023-05-02T12:28:15;99661.81;;;21.89;46.07
9672;BME280;4874;43.568;27.824;2023-05-02T12:30:43;99656.75;;;21.45;46.92
9672;BME280;4874;43.568;27.824;2023-05-02T12:33:10;99658.75;;;21.37;46.88
9672;BME280;4874;43.568;27.824;2023-05-02T12:35:36;99670.69;;;20.79;47.69
9672;BME280;4874;43.568;27.824;2023-05-02T12:38:07;99646.44;;;20.14;48.31
9672;BME280;4874;43.568;27.824;2023-05-02T12:40:33;99654.94;;;20.47;47.63
9672;BME280;4874;43.568;27.824;2023-05-02T12:43:01;99644.66;;;21.41;48.21
9672;BME280;4874;43.568;27.824;2023-05-02T12:45:33;99647.53;;;21.12;47.27
9672;BME280;4874;43.568;27.824;2023-05-02T12:48:00;99646.28;;;21.36;46.15
9672;BME280;4874;43.568;27.824;2023-05-02T12:50:39;99654.28;;;21.50;46.72
9672;BME280;4874;43.568;27.824;2023-05-02T12:53:05;99659.53;;;20.46;47.22
9672;BME280;4874;43.568;27.824;2023-05-02T12:55:32;99651.03;;;21.06;46.64
9672;BME280;4874;43.568;27.824;2023-05-02T12:58:00;99647.34;;;20.71;47.04
9672;BME280;4874;43.568;27.824;2023-05-02T13:00:26;99650.38;;;21.25;47.52
9672;BME280;4874;43.568;27.824;2023-05-02T13:02:53;99652.34;;;20.74;46.94
9672;BME280;4874;43.568;27.824;2023-05-02T13:05:20;99647.25;;;20.44;46.99
9672;BME280;4874;43.568;27.824;2023-05-02T13:07:46;99653.13;;;20.68;46.38
9672;BME280;4874;43.568;27.824;2023-05-02T13:10:13;99657.44;;;20.48;46.54
9672;BME280;4874;43.568;27.824;2023-05-02T13:12:40;99594.50;;;20.20;46.64
9672;BME280;4874;43.568;27.824;2023-05-02T13:15:07;99648.81;;;21.16;46.57
9672;BME280;4874;43.568;27.824;2023-05-02T13:17:34;99655.47;;;20.36;46.21
9672;BME280;4874;43.568;27.824;2023-05-02T13:20:01;99656.00;;;20.46;46.90
9672;BME280;4874;43.568;27.824;2023-05-02T13:22:28;99647.44;;;20.84;46.10
9672;BME280;4874;43.568;27.824;2023-05-02T13:24:55;99652.06;;;20.48;46.43
9672;BME280;4874;43.568;27.824;2023-05-02T13:27:22;99643.94;;;20.84;45.92
9672;BME280;4874;43.568;27.824;2023-05-02T13:29:48;99651.06;;;20.35;46.46
9672;BME280;4874;43.568;27.824;2023-05-02T13:32:15;99648.16;;;19.86;46.90
9672;BME280;4874;43.568;27.824;2023-05-02T13:34:42;99640.50;;;20.54;47.02
9672;BME280;4874;43.568;27.824;2023-05-02T13:37:09;99642.66;;;20.09;46.74
9672;BME280;4874;43.568;27.824;2023-05-02T13:39:36;99620.09;;;19.80;46.56
9672;BME280;4874;43.568;27.824;2023-05-02T13:42:03;99645.69;;;20.06;46.44
9672;BME280;4874;43.568;27.824;2023-05-02T13:44:31;99646.31;;;20.51;46.17
9672;BME280;4874;43.568;27.824;2023-05-02T13:46:57;99636.03;;;20.82;46.26
9672;BME280;4874;43.568;27.824;2023-05-02T13:49:24;99640.38;;;20.62;45.87
9672;BME280;4874;43.568;27.824;2023-05-02T13:51:52;99649.72;;;20.60;45.23
9672;BME280;4874;43.568;27.824;2023-05-02T13:54:19;99651.00;;;20.14;45.34
9672;BME280;4874;43.568;27.824;2023-05-02T13:56:46;99655.03;;;20.03;45.40
9672;BME280;4874;43.568;27.824;2023-05-02T13:59:13;99656.97;;;19.95;44.89
9672;BME280;4874;43.568;27.824;2023-05-02T14:01:39;99646.13;;;20.17;44.91
9672;BME280;4874;43.568;27.824;2023-05-02T14:04:06;99644.13;;;20.61;44.24
9672;BME280;4874;43.568;27.824;2023-05-02T14:06:34;99641.19;;;19.77;44.99
9672;BME280;4874;43.568;27.824;2023-05-02T14:09:01;99637.63;;;20.20;44.91